createdAt,value
2019-05-28T00:02:02.711Z,17.23
2019-05-28T00:04:29.950Z,20.40
2019-05-28T00:06:56.839Z,16.23
2019-05-28T00:09:23.751Z,16.20
2019-05-28T00:11:50.600Z,18.30
2019-05-28T00:14:17.636Z,15.37
2019-05-28T00:16:44.495Z,16.53
2019-05-28T00:19:11.364Z,22.23
2019-05-28T00:21:38.075Z,18.30
2019-05-28T00:24:05.053Z,21.20
2019-05-28T00:26:31.783Z,20.83
2019-05-28T00:28:58.671Z,16.83
2019-05-28T00:31:25.685Z,18.23
2019-05-28T00:33:52.667Z,16.57
2019-05-28T00:36:19.440Z,16.03
2019-05-28T00:38:46.251Z,19.30
2019-05-28T00:41:13.222Z,16.03
2019-05-28T00:43:40.207Z,17.63
2019-05-28T00:46:07.100Z,16.43
2019-05-28T00:48:34.107Z,16.73
2019-05-28T00:51:01.079Z,16.30
2019-05-28T00:53:28.019Z,15.67
2019-05-28T00:55:55.894Z,16.37
2019-05-28T00:58:23.252Z,15.23
2019-05-28T01:00:52.344Z,19.77
2019-05-28T01:03:19.306Z,21.33
2019-05-28T01:05:46.519Z,20.63
2019-05-28T01:08:13.980Z,18.87
2019-05-28T01:10:41.055Z,17.03
2019-05-28T01:13:08.022Z,17.10
2019-05-28T01:15:34.891Z,16.43
2019-05-28T01:18:01.803Z,16.00
2019-05-28T01:20:28.670Z,18.87
2019-05-28T01:22:55.419Z,19.97
2019-05-28T01:25:22.243Z,19.00
2019-05-28T01:27:49.056Z,16.43
2019-05-28T01:30:16.028Z,18.33
2019-05-28T01:32:42.903Z,18.60
2019-05-28T01:35:09.928Z,18.23
2019-05-28T01:37:36.637Z,18.87
2019-05-28T01:40:03.967Z,19.03
2019-05-28T01:42:30.963Z,22.23
2019-05-28T01:44:57.812Z,18.00
2019-05-28T01:47:24.661Z,20.00
2019-05-28T01:49:51.511Z,23.50
2019-05-28T01:52:18.381Z,17.57
2019-05-28T01:54:45.135Z,16.93
2019-05-28T01:57:11.999Z,14.67
2019-05-28T01:59:38.878Z,15.87
2019-05-28T02:02:05.723Z,18.37
2019-05-28T02:04:32.435Z,17.67
2019-05-28T02:06:59.279Z,17.13
2019-05-28T02:09:26.139Z,18.47
2019-05-28T02:11:52.891Z,18.37
2019-05-28T02:14:19.758Z,17.73
2019-05-28T02:16:46.496Z,17.97
2019-05-28T02:19:13.363Z,17.63
2019-05-28T02:21:40.206Z,16.73
2019-05-28T02:24:06.989Z,17.37
2019-05-28T02:26:33.885Z,20.97
2019-05-28T02:29:00.888Z,16.20
2019-05-28T02:31:28.352Z,23.23
2019-05-28T02:33:55.423Z,16.80
2019-05-28T02:36:22.303Z,19.23
2019-05-28T02:38:49.163Z,21.50
2019-05-28T02:41:16.226Z,17.00
2019-05-28T02:43:43.371Z,19.23
2019-05-28T02:46:10.404Z,17.70
2019-05-28T02:48:37.288Z,19.37
2019-05-28T02:51:04.599Z,17.00
2019-05-28T02:53:31.888Z,17.83
2019-05-28T02:55:58.830Z,19.03
2019-05-28T02:58:34.566Z,19.40
2019-05-28T03:01:02.806Z,17.77
2019-05-28T03:03:31.303Z,17.63
2019-05-28T03:05:58.727Z,21.13
2019-05-28T03:08:31.115Z,23.43
2019-05-28T03:11:03.201Z,17.80
2019-05-28T03:13:27.775Z,17.13
2019-05-28T03:15:58.007Z,17.37
2019-05-28T03:18:26.972Z,18.37
2019-05-28T03:20:55.420Z,17.70
2019-05-28T03:23:24.730Z,17.83
2019-05-28T03:25:51.732Z,14.70
2019-05-28T03:28:18.592Z,15.30
2019-05-28T03:30:45.518Z,15.60
2019-05-28T03:33:12.424Z,15.20
2019-05-28T03:35:42.015Z,18.27
2019-05-28T03:38:11.091Z,13.23
2019-05-28T03:40:41.108Z,15.90
2019-05-28T03:43:07.947Z,14.13
2019-05-28T03:45:34.787Z,14.57
2019-05-28T03:48:01.783Z,15.63
2019-05-28T03:50:28.511Z,13.53
2019-05-28T03:52:55.272Z,15.77
2019-05-28T03:55:22.039Z,16.53
2019-05-28T03:57:48.788Z,14.37
2019-05-28T04:00:16.100Z,15.20
2019-05-28T04:02:42.971Z,16.37
2019-05-28T04:05:09.915Z,14.33
2019-05-28T04:07:36.816Z,19.40
2019-05-28T04:10:04.420Z,15.00
2019-05-28T04:12:31.268Z,15.07
2019-05-28T04:14:58.338Z,15.17
2019-05-28T04:17:25.223Z,14.17
2019-05-28T04:19:52.125Z,13.67
2019-05-28T04:22:18.857Z,13.57
2019-05-28T04:24:45.743Z,21.30
2019-05-28T04:27:12.589Z,13.97
2019-05-28T04:29:39.325Z,14.70
2019-05-28T04:32:06.051Z,14.53
2019-05-28T04:34:32.814Z,15.10
2019-05-28T04:36:59.691Z,14.03
2019-05-28T04:39:26.611Z,16.63
2019-05-28T04:41:53.351Z,15.50
2019-05-28T04:44:20.083Z,15.03
2019-05-28T04:46:46.963Z,13.10
2019-05-28T04:49:13.873Z,18.47
2019-05-28T04:51:40.813Z,15.23
2019-05-28T04:54:07.758Z,15.63
2019-05-28T04:56:34.726Z,15.40
2019-05-28T04:59:03.801Z,17.40
2019-05-28T05:01:30.391Z,17.73
2019-05-28T05:03:57.167Z,16.03
2019-05-28T05:06:24.056Z,18.47
2019-05-28T05:08:50.915Z,20.03
2019-05-28T05:11:17.656Z,18.77
2019-05-28T05:13:44.374Z,21.37
2019-05-28T05:16:11.364Z,23.00
2019-05-28T05:18:38.220Z,19.97
2019-05-28T05:21:05.091Z,19.93
2019-05-28T05:23:31.932Z,20.43
2019-05-28T05:25:58.943Z,22.97
2019-05-28T05:28:25.839Z,21.80
2019-05-28T05:30:52.647Z,22.83
2019-05-28T05:33:20.784Z,22.93
2019-05-28T05:35:47.941Z,22.73
2019-05-28T05:38:14.667Z,21.47
2019-05-28T05:40:41.647Z,24.60
2019-05-28T05:43:08.715Z,23.50
2019-05-28T05:45:35.491Z,25.43
2019-05-28T05:48:02.344Z,24.37
2019-05-28T05:50:29.327Z,25.20
2019-05-28T05:52:56.192Z,30.23
2019-05-28T05:55:23.079Z,26.20
2019-05-28T05:57:49.781Z,22.23
2019-05-28T06:00:17.283Z,23.20
2019-05-28T06:02:44.100Z,19.67
2019-05-28T06:05:11.275Z,22.80
2019-05-28T06:07:38.195Z,25.63
2019-05-28T06:10:05.641Z,25.20
2019-05-28T06:12:32.372Z,23.13
2019-05-28T06:14:59.237Z,22.40
2019-05-28T06:17:26.292Z,21.97
2019-05-28T06:19:53.261Z,19.57
2019-05-28T06:22:20.129Z,26.63
2019-05-28T06:24:46.871Z,22.70
2019-05-28T06:27:13.715Z,20.83
2019-05-28T06:29:40.427Z,21.77
2019-05-28T06:32:07.455Z,25.47
2019-05-28T06:34:34.370Z,21.50
2019-05-28T06:37:01.123Z,25.07
2019-05-28T06:39:28.147Z,21.10
2019-05-28T06:41:55.004Z,22.73
2019-05-28T06:44:21.878Z,19.30
2019-05-28T06:46:48.616Z,21.50
2019-05-28T06:49:15.634Z,21.63
2019-05-28T06:51:42.356Z,19.83
2019-05-28T06:54:11.769Z,19.83
2019-05-28T06:56:37.855Z,18.17
2019-05-28T06:59:04.765Z,18.30
2019-05-28T07:01:31.790Z,17.60
2019-05-28T07:04:12.828Z,16.77
2019-05-28T07:06:27.359Z,18.43
2019-05-28T07:08:54.212Z,17.47
2019-05-28T07:11:20.982Z,16.03
2019-05-28T07:13:47.935Z,14.13
2019-05-28T07:16:14.732Z,18.27
2019-05-28T07:18:41.451Z,16.37
2019-05-28T07:21:08.371Z,16.37
2019-05-28T07:23:35.247Z,16.60
2019-05-28T07:26:02.243Z,14.47
2019-05-28T07:28:29.115Z,19.77
2019-05-28T07:30:55.976Z,16.40
2019-05-28T07:33:22.861Z,21.07
2019-05-28T07:35:49.581Z,23.00
2019-05-28T07:38:16.449Z,16.20
2019-05-28T07:40:43.355Z,13.90
2019-05-28T07:43:10.096Z,18.43
2019-05-28T07:45:36.823Z,16.47
2019-05-28T07:48:03.871Z,17.23
2019-05-28T07:50:30.731Z,18.23
2019-05-28T07:52:57.635Z,17.67
2019-05-28T07:55:24.527Z,17.53
2019-05-28T07:57:51.397Z,21.57
2019-05-28T08:00:24.348Z,23.53
2019-05-28T08:02:51.319Z,16.20
2019-05-28T08:05:18.299Z,20.27
2019-05-28T08:07:45.146Z,19.47
2019-05-28T08:10:12.141Z,19.77
2019-05-28T08:12:39.191Z,15.60
2019-05-28T08:15:06.634Z,14.27
2019-05-28T08:17:33.479Z,12.87
2019-05-28T08:20:00.391Z,11.07
2019-05-28T08:22:41.062Z,8.87
2019-05-28T08:24:56.034Z,10.97
2019-05-28T08:27:22.900Z,13.70
2019-05-28T08:29:49.867Z,11.03
2019-05-28T08:32:16.710Z,13.10
2019-05-28T08:34:43.451Z,10.50
2019-05-28T08:37:10.402Z,10.70
2019-05-28T08:39:37.351Z,10.83
2019-05-28T08:42:04.301Z,12.07
2019-05-28T08:44:31.331Z,12.70
2019-05-28T08:46:58.208Z,7.17
2019-05-28T08:49:25.079Z,7.30
2019-05-28T08:51:51.999Z,8.70
2019-05-28T08:54:18.763Z,10.80
2019-05-28T08:56:45.619Z,9.23
2019-05-28T08:59:12.523Z,8.13
2019-05-28T09:01:39.515Z,8.43
2019-05-28T09:04:06.487Z,11.50
2019-05-28T09:06:33.453Z,12.50
2019-05-28T09:09:00.223Z,10.27
2019-05-28T09:11:27.098Z,8.33
2019-05-28T09:13:53.978Z,8.37
2019-05-28T09:16:20.944Z,9.00
2019-05-28T09:18:47.817Z,9.63
2019-05-28T09:21:14.686Z,8.97
2019-05-28T09:23:41.392Z,9.83
2019-05-28T09:26:08.255Z,8.13
2019-05-28T09:28:35.114Z,8.87
2019-05-28T09:31:01.992Z,7.90
2019-05-28T09:33:29.232Z,7.80
2019-05-28T09:36:08.212Z,10.53
2019-05-28T09:38:24.799Z,11.57
2019-05-28T09:40:51.780Z,5.70
2019-05-28T09:43:18.546Z,5.20
2019-05-28T09:45:45.503Z,6.47
2019-05-28T09:48:12.661Z,6.00
2019-05-28T09:50:39.860Z,7.87
2019-05-28T09:53:06.717Z,5.90
2019-05-28T09:55:33.770Z,7.83
2019-05-28T09:58:00.718Z,8.25
2019-05-28T10:00:29.097Z,7.00
2019-05-28T10:02:56.216Z,5.20
2019-05-28T10:05:23.399Z,4.30
2019-05-28T10:07:50.445Z,10.15
2019-05-28T10:10:17.799Z,6.92
2019-05-28T10:12:44.930Z,7.08
2019-05-28T10:15:12.317Z,7.08
2019-05-28T10:17:39.403Z,8.65
2019-05-28T10:20:07.223Z,6.10
2019-05-28T10:22:34.223Z,6.10
2019-05-28T10:25:00.979Z,7.72
2019-05-28T10:27:27.947Z,5.95
2019-05-28T10:29:54.915Z,6.92
2019-05-28T10:32:21.928Z,42.65
2019-05-28T10:35:03.184Z,13.40
2019-05-28T10:37:17.697Z,38.15
2019-05-28T10:39:44.697Z,10.60
2019-05-28T10:42:11.998Z,5.33
2019-05-28T10:44:38.704Z,8.53
2019-05-28T10:47:05.704Z,5.35
2019-05-28T10:49:32.607Z,4.53
2019-05-28T10:51:59.579Z,20.77
2019-05-28T10:54:26.547Z,9.25
2019-05-28T10:56:53.304Z,10.82
2019-05-28T10:59:20.299Z,14.25
2019-05-28T11:01:47.063Z,16.52
2019-05-28T11:04:13.923Z,9.60
2019-05-28T11:06:51.533Z,19.60
2019-05-28T11:09:09.763Z,10.90
2019-05-28T11:11:36.759Z,20.08
2019-05-28T11:14:04.643Z,8.63
2019-05-28T11:16:31.400Z,20.15
2019-05-28T11:18:58.382Z,10.63
2019-05-28T11:21:25.155Z,12.85
2019-05-28T11:23:52.103Z,10.35
2019-05-28T11:26:19.136Z,19.02
2019-05-28T11:28:51.857Z,16.93
2019-05-28T11:31:19.010Z,17.55
2019-05-28T11:33:46.006Z,10.93
2019-05-28T11:36:12.985Z,10.05
2019-05-28T11:38:39.728Z,8.55
2019-05-28T11:41:06.676Z,9.58
2019-05-28T11:43:33.520Z,7.08
2019-05-28T11:46:00.403Z,9.28
2019-05-28T11:48:27.188Z,12.58
2019-05-28T11:50:54.032Z,8.50
2019-05-28T11:53:20.929Z,5.90
2019-05-28T11:55:47.792Z,5.50
2019-05-28T11:58:14.671Z,6.65
2019-05-28T12:00:41.713Z,7.83
2019-05-28T12:03:08.535Z,8.15
2019-05-28T12:05:35.271Z,6.10
2019-05-28T12:08:02.200Z,6.90
2019-05-28T12:10:29.480Z,6.70
2019-05-28T12:12:56.436Z,4.58
2019-05-28T12:15:24.272Z,6.92
2019-05-28T12:17:51.178Z,6.03
2019-05-28T12:20:19.411Z,5.60
2019-05-28T12:22:46.374Z,5.58
2019-05-28T12:25:14.553Z,3.08
2019-05-28T12:27:41.366Z,4.17
2019-05-28T12:30:08.983Z,4.15
2019-05-28T12:32:36.020Z,4.33
2019-05-28T12:35:03.663Z,7.33
2019-05-28T12:37:46.989Z,6.47
2019-05-28T12:39:59.255Z,3.40
2019-05-28T12:42:26.023Z,5.35
2019-05-28T12:45:08.400Z,4.37
2019-05-28T12:47:21.595Z,4.67
2019-05-28T12:49:48.655Z,7.35
2019-05-28T12:52:15.523Z,4.03
2019-05-28T12:54:42.271Z,3.95
2019-05-28T12:57:08.982Z,6.20
2019-05-28T12:59:36.046Z,3.20
2019-05-28T13:02:03.212Z,6.03
2019-05-28T13:04:30.143Z,6.22
2019-05-28T13:06:56.925Z,4.67
2019-05-28T13:09:23.656Z,4.37
2019-05-28T13:11:50.417Z,5.22
2019-05-28T13:14:17.275Z,5.45
2019-05-28T13:16:44.131Z,6.15
2019-05-28T13:19:11.116Z,7.17
2019-05-28T13:21:38.279Z,3.15
2019-05-28T13:24:05.462Z,4.92
2019-05-28T13:26:32.302Z,5.47
2019-05-28T13:28:59.139Z,5.87
2019-05-28T13:31:26.155Z,7.28
2019-05-28T13:33:52.987Z,3.35
2019-05-28T13:36:19.975Z,5.65
2019-05-28T13:38:46.823Z,2.40
2019-05-28T13:41:13.655Z,9.25
2019-05-28T13:43:40.400Z,6.20
2019-05-28T13:46:07.157Z,2.75
2019-05-28T13:48:34.135Z,6.97
2019-05-28T13:51:00.896Z,4.30
2019-05-28T13:53:27.763Z,4.85
2019-05-28T13:55:54.649Z,5.08
2019-05-28T13:58:21.461Z,5.97
2019-05-28T14:00:48.317Z,7.05
2019-05-28T14:03:15.287Z,3.70
2019-05-28T14:05:42.292Z,3.10
2019-05-28T14:08:09.131Z,3.35
2019-05-28T14:10:36.087Z,9.93
2019-05-28T14:13:03.304Z,4.73
2019-05-28T14:15:30.112Z,2.57
2019-05-28T14:17:57.142Z,3.93
2019-05-28T14:20:24.266Z,1.30
2019-05-28T14:22:51.119Z,2.27
2019-05-28T14:25:18.069Z,3.43
2019-05-28T14:27:44.988Z,4.67
2019-05-28T14:30:13.341Z,2.40
2019-05-28T14:32:40.367Z,2.37
2019-05-28T14:35:07.732Z,5.57
2019-05-28T14:37:34.619Z,2.90
2019-05-28T14:40:01.501Z,3.47
2019-05-28T14:42:28.417Z,4.50
2019-05-28T14:44:55.444Z,4.70
2019-05-28T14:47:22.289Z,3.13
2019-05-28T14:49:49.142Z,4.03
2019-05-28T14:52:15.904Z,6.03
2019-05-28T14:54:42.826Z,6.17
2019-05-28T14:57:09.628Z,3.97
2019-05-28T14:59:36.611Z,3.97
2019-05-28T15:02:03.800Z,2.60
2019-05-28T15:04:30.688Z,4.20
2019-05-28T15:06:57.582Z,2.87
2019-05-28T15:09:24.476Z,3.13
2019-05-28T15:11:51.335Z,1.57
2019-05-28T15:14:18.184Z,5.33
2019-05-28T15:16:45.082Z,2.50
2019-05-28T15:19:12.136Z,4.73
2019-05-28T15:21:39.071Z,2.73
2019-05-28T15:24:05.837Z,2.93
2019-05-28T15:26:32.652Z,2.50
2019-05-28T15:28:59.368Z,3.03
2019-05-28T15:31:26.272Z,3.63
2019-05-28T15:33:53.140Z,2.53
2019-05-28T15:36:20.117Z,5.63
2019-05-28T15:38:47.055Z,17.10
2019-05-28T15:41:14.072Z,3.70
2019-05-28T15:43:41.067Z,4.33
2019-05-28T15:46:08.116Z,2.00
2019-05-28T15:48:34.991Z,3.43
2019-05-28T15:51:02.061Z,4.10
2019-05-28T15:53:29.121Z,4.63
2019-05-28T15:55:56.073Z,5.50
2019-05-28T15:58:22.963Z,3.27
2019-05-28T16:00:49.980Z,2.70
2019-05-28T16:03:16.990Z,3.40
2019-05-28T16:05:43.750Z,1.83
2019-05-28T16:08:10.671Z,4.03
2019-05-28T16:10:37.639Z,4.33
2019-05-28T16:13:05.031Z,2.77
2019-05-28T16:15:32.010Z,4.60
2019-05-28T16:17:58.733Z,3.27
2019-05-28T16:20:25.686Z,2.53
2019-05-28T16:22:52.442Z,3.27
2019-05-28T16:25:19.423Z,2.50
2019-05-28T16:27:46.212Z,2.47
2019-05-28T16:30:13.903Z,3.90
2019-05-28T16:32:40.959Z,1.97
2019-05-28T16:35:08.185Z,5.83
2019-05-28T16:37:35.219Z,4.57
2019-05-28T16:40:14.234Z,1.30
2019-05-28T16:42:31.274Z,2.70
2019-05-28T16:44:58.009Z,2.07
2019-05-28T16:47:24.783Z,2.83
2019-05-28T16:49:51.666Z,1.50
2019-05-28T16:52:18.419Z,5.53
2019-05-28T16:54:45.246Z,2.98
2019-05-28T16:57:12.287Z,3.13
2019-05-28T16:59:39.273Z,3.60
2019-05-28T17:02:06.199Z,2.30
2019-05-28T17:04:33.306Z,1.27
2019-05-28T17:07:00.047Z,3.17
2019-05-28T17:09:26.954Z,1.97
2019-05-28T17:11:53.908Z,4.63
2019-05-28T17:14:20.993Z,1.57
2019-05-28T17:16:47.855Z,2.30
2019-05-28T17:19:14.844Z,2.17
2019-05-28T17:21:41.844Z,4.63
2019-05-28T17:24:08.599Z,3.97
2019-05-28T17:26:35.337Z,2.23
2019-05-28T17:29:02.278Z,1.83
2019-05-28T17:31:29.140Z,1.97
2019-05-28T17:33:56.239Z,1.70
2019-05-28T17:36:23.021Z,2.23
2019-05-28T17:38:49.759Z,1.47
2019-05-28T17:41:19.744Z,6.60
2019-05-28T17:43:45.512Z,2.97
2019-05-28T17:46:12.352Z,3.47
2019-05-28T17:48:39.222Z,2.40
2019-05-28T17:51:06.314Z,2.77
2019-05-28T17:53:34.518Z,2.77
2019-05-28T17:56:01.737Z,1.63
2019-05-28T17:58:30.942Z,1.30
2019-05-28T18:00:57.548Z,3.07
2019-05-28T18:03:24.395Z,4.63
2019-05-28T18:05:51.288Z,2.13
2019-05-28T18:08:18.205Z,2.53
2019-05-28T18:10:45.231Z,3.43
2019-05-28T18:13:12.370Z,2.93
2019-05-28T18:15:39.411Z,3.83
2019-05-28T18:18:06.345Z,2.27
2019-05-28T18:20:33.216Z,1.13
2019-05-28T18:23:00.019Z,3.10
2019-05-28T18:25:26.876Z,2.10
2019-05-28T18:27:53.653Z,2.40
2019-05-28T18:30:20.599Z,2.13
2019-05-28T18:32:48.019Z,1.40
2019-05-28T18:35:15.015Z,2.37
2019-05-28T18:37:41.854Z,2.03
2019-05-28T18:40:09.692Z,2.40
2019-05-28T18:42:36.691Z,1.53
2019-05-28T18:45:05.214Z,2.57
2019-05-28T18:47:31.940Z,2.57
2019-05-28T18:50:03.286Z,2.80
2019-05-28T18:52:27.805Z,4.93
2019-05-28T18:54:54.772Z,3.90
2019-05-28T18:57:21.535Z,6.13
2019-05-28T18:59:48.407Z,1.93
2019-05-28T19:02:15.403Z,2.97
2019-05-28T19:04:42.404Z,1.57
2019-05-28T19:07:09.231Z,4.17
2019-05-28T19:09:36.120Z,3.87
2019-05-28T19:12:03.149Z,4.30
2019-05-28T19:14:30.035Z,2.63
2019-05-28T19:16:56.939Z,4.23
2019-05-28T19:19:23.843Z,6.60
2019-05-28T19:21:50.572Z,6.80
2019-05-28T19:24:17.764Z,7.77
2019-05-28T19:26:44.520Z,7.73
2019-05-28T19:29:11.471Z,4.47
2019-05-28T19:31:38.551Z,5.60
2019-05-28T19:34:05.456Z,2.97
2019-05-28T19:36:32.405Z,4.13
2019-05-28T19:39:00.098Z,5.77
2019-05-28T19:41:27.008Z,5.23
2019-05-28T19:43:53.844Z,4.80
2019-05-28T19:46:20.581Z,4.80
2019-05-28T19:48:47.573Z,4.33
2019-05-28T19:51:14.448Z,4.47
2019-05-28T19:53:41.376Z,5.23
2019-05-28T19:56:08.165Z,4.47
2019-05-28T19:58:34.984Z,5.00
2019-05-28T20:01:02.007Z,8.73
2019-05-28T20:03:28.862Z,3.40
2019-05-28T20:05:55.972Z,2.83
2019-05-28T20:08:22.868Z,5.70
2019-05-28T20:10:50.735Z,4.47
2019-05-28T20:13:20.168Z,6.30
2019-05-28T20:15:47.028Z,4.30
2019-05-28T20:18:26.240Z,4.53
2019-05-28T20:20:43.458Z,8.57
2019-05-28T20:23:10.374Z,6.63
2019-05-28T20:25:37.130Z,6.27
2019-05-28T20:28:04.102Z,4.40
2019-05-28T20:30:31.064Z,6.23
2019-05-28T20:32:59.013Z,3.60
2019-05-28T20:35:26.289Z,6.00
2019-05-28T20:37:53.310Z,4.63
2019-05-28T20:40:20.418Z,4.60
2019-05-28T20:42:47.155Z,3.83
2019-05-28T20:45:14.338Z,4.17
2019-05-28T20:47:41.329Z,8.60
2019-05-28T20:50:09.412Z,4.63
2019-05-28T20:52:36.636Z,3.57
2019-05-28T20:55:04.271Z,3.93
2019-05-28T20:57:31.136Z,2.87
2019-05-28T20:59:58.008Z,4.00
2019-05-28T21:02:24.918Z,5.97
2019-05-28T21:04:52.412Z,6.80
2019-05-28T21:07:19.555Z,4.93
2019-05-28T21:09:46.362Z,6.23
2019-05-28T21:12:13.193Z,4.77
2019-05-28T21:14:40.151Z,4.17
2019-05-28T21:17:07.172Z,5.47
2019-05-28T21:19:33.928Z,4.00
2019-05-28T21:22:00.776Z,3.90
2019-05-28T21:24:27.747Z,4.07
2019-05-28T21:26:54.643Z,2.27
2019-05-28T21:29:21.547Z,2.43
2019-05-28T21:31:48.466Z,3.23
2019-05-28T21:34:15.307Z,4.05
2019-05-28T21:36:42.043Z,5.57
2019-05-28T21:39:08.817Z,3.83
2019-05-28T21:41:35.577Z,7.40
2019-05-28T21:44:02.495Z,5.50
2019-05-28T21:46:29.516Z,4.07
2019-05-28T21:48:56.574Z,4.23
2019-05-28T21:51:23.619Z,7.83
2019-05-28T21:53:50.359Z,2.90
2019-05-28T21:56:17.118Z,4.63
2019-05-28T21:58:43.852Z,2.90
2019-05-28T22:01:15.451Z,3.87
2019-05-28T22:03:42.219Z,7.47
2019-05-28T22:06:09.108Z,7.50
2019-05-28T22:08:36.111Z,4.73
2019-05-28T22:11:03.945Z,3.10
2019-05-28T22:13:31.162Z,3.07
2019-05-28T22:15:58.184Z,3.30
2019-05-28T22:18:25.047Z,6.77
2019-05-28T22:20:51.785Z,7.13
2019-05-28T22:23:18.830Z,5.40
2019-05-28T22:25:45.827Z,4.07
2019-05-28T22:28:12.575Z,3.23
2019-05-28T22:30:39.556Z,5.97
2019-05-28T22:33:06.437Z,5.77
2019-05-28T22:35:33.419Z,3.80
2019-05-28T22:38:01.163Z,5.33
2019-05-28T22:40:28.195Z,5.73
2019-05-28T22:42:55.035Z,5.20
2019-05-28T22:45:21.767Z,3.97
2019-05-28T22:47:48.820Z,4.47
2019-05-28T22:50:22.770Z,5.10
2019-05-28T22:52:44.663Z,3.63
2019-05-28T22:55:11.852Z,5.43
2019-05-28T22:57:38.822Z,4.20
2019-05-28T23:00:06.797Z,3.73
2019-05-28T23:02:33.795Z,3.50
2019-05-28T23:05:01.071Z,4.50
2019-05-28T23:07:27.869Z,7.70
2019-05-28T23:09:54.767Z,5.83
2019-05-28T23:12:21.645Z,5.80
2019-05-28T23:14:48.750Z,3.80
2019-05-28T23:17:15.755Z,5.10
2019-05-28T23:19:42.610Z,5.17
2019-05-28T23:22:09.492Z,4.20
2019-05-28T23:24:36.252Z,4.87
2019-05-28T23:27:03.555Z,5.63
2019-05-28T23:29:30.555Z,6.53
2019-05-28T23:31:57.487Z,5.50
2019-05-28T23:34:24.345Z,5.90
2019-05-28T23:36:51.276Z,6.00
2019-05-28T23:39:18.187Z,3.70
2019-05-28T23:41:45.086Z,3.90
2019-05-28T23:44:12.049Z,4.43
2019-05-28T23:46:38.940Z,6.50
2019-05-28T23:49:06.098Z,5.90
2019-05-28T23:51:33.041Z,5.33
2019-05-28T23:53:59.924Z,5.37
2019-05-28T23:56:26.668Z,5.20
2019-05-28T23:58:53.555Z,5.07
